Time;durP1;ratioP1;P1;durP2;ratioP2;P2;SDS_P1;SDS_P2;PMS_P1;PMS_P2;Temp;Humidity;BMP_temperature;BMP_pressure;BME280_temperature;BME280_humidity;BME280_pressure;Samples;Min_cycle;Max_cycle;Signal;HPM_P1;HPM_P2
2023/01/16 00:00:31;;;;;;;0.83;0.40;;;6.00;99.90;;;;;;4807768;29;20470;-70
2023/01/16 00:02:59;;;;;;;1.13;0.37;;;5.80;99.90;;;;;;4806770;29;20454;-70
2023/01/16 00:05:27;;;;;;;0.50;0.10;;;5.50;99.90;;;;;;4809774;29;20505;-70
2023/01/16 00:07:55;;;;;;;0.60;0.40;;;5.50;99.90;;;;;;4812227;29;20451;-71
2023/01/16 00:10:23;;;;;;;0.50;0.10;;;5.60;99.90;;;;;;4844531;29;20489;-70
2023/01/16 00:12:52;;;;;;;1.07;0.40;;;5.60;99.90;;;;;;4843445;29;20466;-72
2023/01/16 00:15:20;;;;;;;0.50;0.10;;;5.70;99.90;;;;;;4843270;29;20477;-71
2023/01/16 00:17:49;;;;;;;0.50;0.10;;;5.80;99.90;;;;;;4843332;29;20499;-71
2023/01/16 00:20:18;;;;;;;0.50;0.10;;;5.80;99.90;;;;;;4842869;29;20884;-71
2023/01/16 00:22:46;;;;;;;0.50;0.10;;;6.00;99.90;;;;;;4843521;29;20459;-71
2023/01/16 00:25:14;;;;;;;0.50;0.10;;;6.00;99.90;;;;;;4846926;29;20456;-72
2023/01/16 00:27:42;;;;;;;0.50;0.10;;;6.00;99.90;;;;;;4850078;29;20451;-71
2023/01/16 00:30:12;;;;;;;0.50;0.10;;;6.10;99.90;;;;;;4850119;29;20460;-71
2023/01/16 00:32:40;;;;;;;0.50;0.10;;;6.10;99.90;;;;;;4843636;29;20974;-70
2023/01/16 00:35:09;;;;;;;0.50;0.10;;;6.10;99.90;;;;;;4843450;29;20484;-73
2023/01/16 00:37:37;;;;;;;0.50;0.10;;;6.10;99.90;;;;;;4830960;29;20870;-72
2023/01/16 00:40:05;;;;;;;0.50;0.10;;;6.10;99.90;;;;;;4843133;29;21160;-72
2023/01/16 00:42:33;;;;;;;0.50;0.10;;;6.10;99.90;;;;;;4843162;29;20832;-73
2023/01/16 00:45:01;;;;;;;0.50;0.10;;;6.00;99.90;;;;;;4843102;29;20457;-72
2023/01/16 00:47:30;;;;;;;0.60;0.40;;;6.00;99.90;;;;;;4842335;29;20457;-70
2023/01/16 00:49:58;;;;;;;0.50;0.10;;;6.00;99.90;;;;;;4843172;29;20445;-73
2023/01/16 00:52:26;;;;;;;0.50;0.10;;;6.00;99.90;;;;;;4833448;29;20462;-71
2023/01/16 00:54:54;;;;;;;0.50;0.10;;;6.00;99.90;;;;;;4825351;29;20457;-72
2023/01/16 00:57:21;;;;;;;0.50;0.10;;;6.10;99.90;;;;;;4824826;29;20485;-71
2023/01/16 00:59:49;;;;;;;0.50;0.10;;;6.10;99.90;;;;;;4825078;29;20469;-70
2023/01/16 05:00:32;;;;;;;0.50;0.10;;;;;;;;;;5869181;23;20737;31
2023/01/16 05:03:01;;;;;;;0.50;0.10;;;6.50;99.90;;;;;;4809658;29;20507;-71
2023/01/16 05:05:29;;;;;;;0.50;0.10;;;6.50;99.90;;;;;;4826302;29;20897;-73
2023/01/16 05:10:38;;;;;;;0.50;0.10;;;6.50;99.90;;;;;;4811005;29;20455;-71
2023/01/16 05:13:06;;;;;;;0.50;0.10;;;6.50;99.90;;;;;;4813098;29;20507;-70
2023/01/16 05:15:35;;;;;;;0.50;0.10;;;6.50;99.90;;;;;;4814010;29;20451;-71
2023/01/16 05:18:03;;;;;;;0.50;0.10;;;6.50;99.90;;;;;;4813838;29;21035;-71
2023/01/16 05:20:32;;;;;;;0.50;0.10;;;6.60;99.90;;;;;;4814900;29;20458;-71
2023/01/16 05:23:01;;;;;;;0.50;0.10;;;6.50;99.90;;;;;;4817199;29;20450;-71
2023/01/16 05:25:29;;;;;;;0.50;0.10;;;6.50;99.90;;;;;;4820638;29;20484;-72
2023/01/16 05:27:57;;;;;;;0.50;0.10;;;6.60;99.90;;;;;;4815852;29;20457;-71
2023/01/16 05:30:25;;;;;;;0.50;0.10;;;6.60;99.90;;;;;;4810605;29;20489;-72
2023/01/16 05:32:54;;;;;;;0.50;0.10;;;6.60;99.90;;;;;;4820009;29;20510;-71
2023/01/16 05:35:22;;;;;;;0.50;0.10;;;6.60;99.90;;;;;;4817429;29;20457;-71
2023/01/16 05:37:50;;;;;;;0.50;0.10;;;6.60;99.90;;;;;;4811343;29;20490;-71
2023/01/16 05:40:18;;;;;;;0.50;0.10;;;6.50;99.90;;;;;;4811037;29;20477;-71
2023/01/16 05:42:47;;;;;;;0.50;0.10;;;6.60;99.90;;;;;;4819800;29;20478;-70
2023/01/16 05:45:15;;;;;;;0.50;0.10;;;6.50;99.90;;;;;;4818328;29;20451;-71
2023/01/16 05:47:44;;;;;;;0.50;0.10;;;6.60;99.90;;;;;;4812118;29;20806;-71
2023/01/16 05:50:13;;;;;;;0.50;0.10;;;6.60;99.90;;;;;;4810765;29;20481;-71
2023/01/16 05:52:41;;;;;;;0.50;0.10;;;6.60;99.90;;;;;;4819602;29;20496;-70
2023/01/16 05:55:09;;;;;;;0.50;0.10;;;6.60;99.90;;;;;;4813088;29;20457;-71
2023/01/16 05:57:37;;;;;;;0.50;0.10;;;6.60;99.90;;;;;;4809038;29;20450;-70
2023/01/16 06:00:06;;;;;;;0.50;0.10;;;6.60;99.90;;;;;;4810776;29;20442;-71
2023/01/16 06:02:34;;;;;;;0.50;0.10;;;6.60;99.90;;;;;;4816288;29;20511;-71
2023/01/16 06:05:02;;;;;;;0.50;0.10;;;6.60;99.90;;;;;;4822680;29;20540;-71
2023/01/16 06:07:31;;;;;;;0.50;0.10;;;6.70;99.90;;;;;;4829953;29;20457;-71
2023/01/16 06:09:59;;;;;;;0.50;0.10;;;6.70;99.90;;;;;;4827093;29;20449;-70
2023/01/16 06:12:27;;;;;;;0.50;0.10;;;6.60;99.90;;;;;;4829842;29;20496;-71
2023/01/16 06:14:55;;;;;;;0.50;0.10;;;6.70;99.90;;;;;;4828486;29;20461;-70
2023/01/16 06:17:23;;;;;;;0.50;0.10;;;6.70;99.90;;;;;;4829512;29;20530;-70
2023/01/16 06:19:51;;;;;;;0.50;0.10;;;6.70;99.90;;;;;;4828286;29;20545;-70
2023/01/16 06:22:20;;;;;;;0.50;0.10;;;6.70;99.90;;;;;;4821475;29;20486;-71
2023/01/16 06:24:49;;;;;;;0.50;0.10;;;6.80;99.90;;;;;;4821176;29;20457;-72
2023/01/16 06:27:17;;;;;;;0.50;0.10;;;6.70;99.90;;;;;;4821353;29;20453;-71
2023/01/16 06:29:45;;;;;;;0.50;0.10;;;6.80;99.90;;;;;;4831858;29;20544;-71
2023/01/16 06:32:12;;;;;;;0.50;0.10;;;6.80;99.90;;;;;;4827924;29;20534;-71
2023/01/16 06:34:40;;;;;;;0.50;0.10;;;6.70;99.90;;;;;;4823155;29;20854;-71
2023/01/16 06:37:08;;;;;;;0.50;0.10;;;6.80;99.90;;;;;;4818904;29;20476;-70
2023/01/16 06:39:36;;;;;;;0.50;0.10;;;6.80;99.90;;;;;;4820337;29;20482;-73
2023/01/16 06:42:05;;;;;;;0.50;0.10;;;6.80;99.90;;;;;;4815993;29;20470;-72
2023/01/16 06:44:40;;;;;;;0.50;0.10;;;6.80;99.90;;;;;;4810328;29;20873;-72
2023/01/16 06:47:12;;;;;;;0.50;0.10;;;6.70;99.90;;;;;;4810110;29;20458;-72
2023/01/16 06:49:44;;;;;;;0.50;0.10;;;6.80;99.90;;;;;;4810481;29;20504;-71
2023/01/16 06:52:11;;;;;;;0.50;0.10;;;6.80;99.90;;;;;;4810090;29;20481;-72
2023/01/16 06:54:39;;;;;;;0.50;0.10;;;6.80;99.90;;;;;;4809517;29;20463;-72
2023/01/16 06:57:09;;;;;;;0.50;0.10;;;6.80;99.90;;;;;;4809153;29;20519;-72
2023/01/16 06:59:36;;;;;;;0.50;0.10;;;6.80;99.90;;;;;;4809033;29;20493;-73
2023/01/16 07:02:04;;;;;;;0.50;0.10;;;6.70;99.90;;;;;;4809656;29;20482;-72
2023/01/16 07:04:32;;;;;;;0.50;0.10;;;6.70;99.90;;;;;;4808711;29;20458;-72
2023/01/16 07:07:00;;;;;;;0.50;0.10;;;6.50;99.90;;;;;;4808013;29;20463;-72
2023/01/16 07:09:29;;;;;;;0.50;0.10;;;6.50;99.90;;;;;;4821001;29;20449;-72
2023/01/16 07:11:57;;;;;;;0.50;0.10;;;6.50;99.90;;;;;;4828369;29;21077;-72
2023/01/16 07:22:45;;;;;;;0.50;0.10;;;6.30;99.90;;;;;;4829380;29;20996;-72
2023/01/16 07:25:16;;;;;;;0.50;0.10;;;6.30;99.90;;;;;;4793949;29;20462;-72
2023/01/16 07:27:48;;;;;;;0.50;0.10;;;6.30;99.90;;;;;;4808160;29;20464;-72
2023/01/16 07:30:18;;;;;;;0.50;0.10;;;6.30;99.90;;;;;;4809044;29;20459;-72
2023/01/16 07:32:49;;;;;;;0.50;0.20;;;;;;;;;;4811180;29;20466;-74
2023/01/16 07:35:17;;;;;;;0.50;0.10;;;6.20;99.90;;;;;;4809379;29;20482;-71
2023/01/16 07:37:45;;;;;;;0.50;0.17;;;6.20;99.90;;;;;;4809040;29;21008;-71
2023/01/16 07:40:14;;;;;;;0.50;0.10;;;;;;;;;;4808861;29;20490;-71
2023/01/16 07:42:42;;;;;;;0.50;0.10;;;6.20;99.90;;;;;;4810831;29;20903;-73
2023/01/16 07:45:11;;;;;;;0.50;0.10;;;6.20;99.90;;;;;;4817229;29;20497;-73
2023/01/16 07:47:40;;;;;;;0.50;0.10;;;6.20;99.90;;;;;;4818541;29;20474;-67
2023/01/16 07:50:10;;;;;;;0.50;0.10;;;;;;;;;;4820081;29;20483;-68
2023/01/16 07:52:38;;;;;;;0.50;0.20;;;6.10;99.90;;;;;;4816639;29;20478;-72
2023/01/16 07:55:07;;;;;;;0.50;0.10;;;6.20;99.90;;;;;;4816657;29;20522;-72
2023/01/16 07:57:36;;;;;;;0.50;0.10;;;6.20;99.90;;;;;;4817721;29;20461;-72
2023/01/16 08:00:05;;;;;;;0.50;0.10;;;6.20;99.90;;;;;;4818749;29;20497;-73
2023/01/16 08:02:33;;;;;;;0.50;0.10;;;6.20;99.90;;;;;;4824838;29;20482;-70
2023/01/16 08:05:02;;;;;;;0.50;0.10;;;6.20;99.90;;;;;;4818463;29;20983;-71
2023/01/16 08:07:30;;;;;;;0.50;0.10;;;6.20;99.90;;;;;;4816603;29;20445;-72
2023/01/16 08:09:58;;;;;;;0.50;0.10;;;6.20;99.90;;;;;;4822831;29;20437;-73
2023/01/16 08:12:26;;;;;;;0.50;0.10;;;6.20;99.90;;;;;;4826613;29;20476;-71
2023/01/16 08:14:54;;;;;;;0.50;0.10;;;6.30;99.90;;;;;;4827012;29;20453;-71
2023/01/16 08:17:22;;;;;;;0.50;0.10;;;6.20;99.90;;;;;;4813507;29;20458;-71
2023/01/16 08:19:49;;;;;;;0.50;0.10;;;6.20;99.90;;;;;;4808837;29;20512;-70
2023/01/16 08:22:19;;;;;;;0.50;0.10;;;6.20;99.90;;;;;;4807890;29;20982;-70
2023/01/16 08:24:46;;;;;;;0.50;0.10;;;6.20;99.90;;;;;;4808238;29;20859;-70
2023/01/16 08:27:14;;;;;;;0.50;0.10;;;6.20;99.90;;;;;;4807676;29;20458;-71
2023/01/16 08:29:42;;;;;;;0.50;0.10;;;6.20;99.90;;;;;;4807752;29;20494;-70
2023/01/16 08:32:10;;;;;;;0.50;0.20;;;6.20;99.90;;;;;;4810858;29;20482;-72
2023/01/16 08:34:38;;;;;;;0.50;0.10;;;6.20;99.90;;;;;;4808654;29;20531;-72
2023/01/16 08:37:07;;;;;;;0.50;0.10;;;6.20;99.90;;;;;;4808183;29;20462;-72
2023/01/16 08:39:36;;;;;;;2.87;2.23;;;6.10;99.90;;;;;;4807708;29;20481;-71
2023/01/16 08:53:08;;;;;;;0.50;0.10;;;6.20;99.90;;;;;;4808172;29;20458;-71
2023/01/16 08:55:38;;;;;;;0.50;0.10;;;6.20;99.90;;;;;;4808086;29;20454;-70
2023/01/16 08:58:06;;;;;;;2.43;1.40;;;6.20;99.90;;;;;;4807387;29;20508;-71
2023/01/16 09:00:35;;;;;;;0.50;0.10;;;6.20;99.90;;;;;;4810656;29;20493;-71
2023/01/16 09:03:03;;;;;;;0.50;0.20;;;6.20;99.90;;;;;;4812290;29;20458;-70
2023/01/16 09:05:31;;;;;;;0.50;0.10;;;6.10;99.90;;;;;;4816009;29;20462;-70
2023/01/16 09:07:58;;;;;;;0.50;0.10;;;6.20;99.90;;;;;;4812795;29;20549;-71
2023/01/16 09:10:27;;;;;;;0.63;0.60;;;6.20;99.90;;;;;;4831285;29;20473;-72
2023/01/16 09:15:42;;;;;;;0.50;0.10;;;6.20;99.90;;;;;;4817094;29;20655;-72
2023/01/16 09:18:10;;;;;;;0.50;0.10;;;6.30;99.90;;;;;;4825593;29;20494;-71
2023/01/16 09:20:38;;;;;;;0.50;0.10;;;6.30;99.90;;;;;;4824771;29;21001;-71
2023/01/16 09:23:05;;;;;;;0.87;0.80;;;6.30;99.90;;;;;;4824895;29;20449;-71
2023/01/16 09:25:34;;;;;;;0.50;0.20;;;6.20;99.90;;;;;;4825189;29;20449;-71
2023/01/16 09:28:03;;;;;;;0.50;0.10;;;6.20;99.90;;;;;;4825106;29;20449;-71
2023/01/16 09:30:31;;;;;;;0.50;0.10;;;6.30;99.90;;;;;;4824555;29;20457;-70
2023/01/16 09:32:59;;;;;;;0.50;0.10;;;5.50;99.90;;;;;;4825346;29;20506;-71
2023/01/16 09:35:26;;;;;;;0.87;0.23;;;6.30;99.90;;;;;;4824995;29;20461;-70
2023/01/16 09:37:54;;;;;;;0.50;0.10;;;6.40;99.90;;;;;;4825070;29;20446;-70
2023/01/16 09:40:23;;;;;;;0.50;0.10;;;6.40;99.90;;;;;;4824521;29;20497;-70
2023/01/16 09:46:07;;;;;;;0.80;0.77;;;6.30;99.90;;;;;;4823899;29;20485;-71
2023/01/16 09:48:39;;;;;;;9.00;2.33;;;6.40;99.90;;;;;;4817009;29;20484;-72
2023/01/16 09:51:11;;;;;;;0.50;0.10;;;6.40;99.90;;;;;;4817269;29;20477;-71
2023/01/16 09:59:27;;;;;;;0.50;0.10;;;6.50;99.90;;;;;;4819910;29;20450;-71
2023/01/16 10:02:01;;;;;;;0.50;0.10;;;6.40;99.90;;;;;;4815795;29;21031;-72
2023/01/16 10:04:30;;;;;;;0.50;0.10;;;6.40;99.90;;;;;;4807100;29;20485;-71
2023/01/16 10:07:27;;;;;;;0.50;0.10;;;6.40;99.90;;;;;;4810726;29;20549;-73
2023/01/16 10:10:02;;;;;;;0.50;0.10;;;6.40;99.90;;;;;;4806620;29;20467;-74
2023/01/16 10:12:35;;;;;;;0.50;0.10;;;6.40;99.90;;;;;;4813147;29;20485;-73
2023/01/16 10:15:17;;;;;;;0.50;0.10;;;6.40;99.90;;;;;;4814236;29;21014;-73
2023/01/16 10:18:00;;;;;;;0.70;0.40;;;6.40;99.90;;;;;;4827288;29;20464;-73
2023/01/16 10:20:56;;;;;;;0.50;0.10;;;6.40;99.90;;;;;;4825803;29;20489;-72
2023/01/16 10:23:39;;;;;;;0.50;0.10;;;6.40;99.90;;;;;;4827911;29;20556;-73
2023/01/16 10:26:13;;;;;;;0.50;0.10;;;6.40;99.90;;;;;;4825727;29;20540;-72
2023/01/16 10:28:53;;;;;;;0.50;0.10;;;6.50;99.90;;;;;;4833415;29;20453;-72
2023/01/16 10:31:27;;;;;;;0.50;0.10;;;6.50;99.90;;;;;;4833537;29;20881;-72
2023/01/16 10:33:59;;;;;;;0.50;0.10;;;6.50;99.90;;;;;;4833978;29;20449;-72
2023/01/16 10:36:32;;;;;;;0.50;0.10;;;6.50;99.90;;;;;;4829355;29;20449;-72
2023/01/16 10:39:01;;;;;;;0.50;0.10;;;5.10;99.90;;;;;;4828120;29;20469;-72
2023/01/16 10:50:26;;;;;;;0.50;0.10;;;6.40;99.90;;;;;;4809197;29;20450;-72
2023/01/16 10:53:05;;;;;;;0.50;0.10;;;6.40;99.90;;;;;;4808689;29;20454;-72
2023/01/16 10:55:35;;;;;;;0.50;0.10;;;6.40;99.90;;;;;;4820149;29;20458;-71
2023/01/16 10:58:05;;;;;;;0.50;0.10;;;6.40;99.90;;;;;;4829668;29;20457;-72
2023/01/16 11:00:36;;;;;;;0.70;0.70;;;6.40;99.90;;;;;;4830544;29;20489;-72
2023/01/16 11:03:14;;;;;;;0.50;0.10;;;6.40;99.90;;;;;;4827565;29;20465;-72
2023/01/16 11:05:43;;;;;;;0.50;0.10;;;6.40;99.90;;;;;;4826869;29;20453;-71
2023/01/16 11:08:13;;;;;;;0.60;0.30;;;6.40;99.90;;;;;;4820506;29;20469;-72
2023/01/16 11:10:44;;;;;;;0.50;0.10;;;6.30;99.90;;;;;;4819944;29;20540;-73
2023/01/16 11:18:51;;;;;;;0.50;0.10;;;6.20;99.90;;;;;;4825772;29;20514;-73
2023/01/16 11:21:28;;;;;;;0.50;0.10;;;6.20;99.90;;;;;;4823410;29;20504;-71
2023/01/16 11:24:01;;;;;;;0.50;0.10;;;6.10;99.90;;;;;;4827512;29;20453;-73
2023/01/16 11:26:31;;;;;;;0.50;0.10;;;6.10;99.90;;;;;;4826409;29;20787;-72
2023/01/16 11:28:59;;;;;;;0.50;0.10;;;6.00;99.90;;;;;;4812575;29;20472;-72
2023/01/16 11:31:30;;;;;;;0.50;0.10;;;5.90;99.90;;;;;;4813867;29;20470;-73
2023/01/16 11:34:04;;;;;;;0.50;0.10;;;5.90;99.90;;;;;;4816097;29;20493;-72
2023/01/16 11:36:35;;;;;;;0.60;0.40;;;5.90;99.90;;;;;;4809168;29;20549;-72
2023/01/16 11:39:05;;;;;;;0.50;0.10;;;5.80;99.90;;;;;;4809930;29;20458;-73
2023/01/16 11:41:36;;;;;;;0.60;0.30;;;5.80;99.90;;;;;;4809091;29;20513;-71
2023/01/16 11:47:00;;;;;;;0.50;0.10;;;5.80;99.90;;;;;;4810406;29;20451;-73
2023/01/16 11:49:35;;;;;;;0.50;0.10;;;5.90;99.90;;;;;;4814886;29;20493;-73
2023/01/16 11:52:04;;;;;;;0.50;0.10;;;5.80;99.90;;;;;;4823275;29;20470;-72
2023/01/16 11:54:34;;;;;;;0.50;0.10;;;5.80;99.90;;;;;;4822118;29;20519;-73
2023/01/16 11:57:15;;;;;;;0.50;0.10;;;5.90;99.90;;;;;;4816128;29;20455;-71
2023/01/16 11:59:55;;;;;;;0.50;0.10;;;5.90;99.90;;;;;;4816518;29;20450;-71
2023/01/16 12:02:52;;;;;;;0.50;0.10;;;6.00;99.90;;;;;;4810163;29;20498;-70
2023/01/16 12:08:25;;;;;;;0.50;0.10;;;6.10;99.90;;;;;;4830190;29;20892;-69
2023/01/16 12:11:02;;;;;;;0.50;0.10;;;6.20;99.90;;;;;;4829685;29;20511;-69
2023/01/16 12:16:51;;;;;;;0.50;0.10;;;6.40;99.90;;;;;;4807047;29;20553;-70
2023/01/16 12:19:39;;;;;;;0.50;0.10;;;6.30;99.90;;;;;;4807000;29;20465;-69
2023/01/16 12:22:16;;;;;;;0.50;0.20;;;6.40;99.90;;;;;;4806352;29;20882;-72
2023/01/16 12:24:49;;;;;;;0.50;0.10;;;6.40;99.90;;;;;;4807365;29;20458;-70
2023/01/16 12:27:32;;;;;;;0.50;0.10;;;6.40;99.90;;;;;;4806111;29;20958;-69
2023/01/16 12:30:06;;;;;;;0.50;0.10;;;6.40;99.90;;;;;;4807945;29;20458;-69
2023/01/16 12:32:53;;;;;;;0.50;0.10;;;6.40;99.90;;;;;;4808729;29;20538;-71
2023/01/16 12:35:34;;;;;;;0.50;0.10;;;6.50;99.90;;;;;;4808634;29;20549;-69
2023/01/16 12:38:12;;;;;;;0.50;0.10;;;6.40;99.90;;;;;;4803500;29;20460;-71
2023/01/16 12:43:17;;;;;;;0.50;0.10;;;6.50;99.90;;;;;;4812952;29;20450;-71
2023/01/16 12:44:08;;;;;;;0.93;0.93;;;6.50;99.90;;;;;;4818851;29;20469;-70
2023/01/16 12:46:47;;;;;;;0.50;0.33;;;6.50;99.90;;;;;;4813901;29;20938;-70
2023/01/16 12:49:31;;;;;;;0.50;0.10;;;6.60;99.90;;;;;;4823213;29;20816;-70
2023/01/16 12:52:10;;;;;;;0.50;0.10;;;6.70;99.90;;;;;;4811790;29;20476;-70
2023/01/16 12:54:53;;;;;;;0.50;0.10;;;6.70;99.90;;;;;;4824701;29;20451;-69
2023/01/16 12:57:50;;;;;;;0.50;0.10;;;6.80;99.90;;;;;;4815200;29;20943;-69
2023/01/16 13:00:23;;;;;;;0.50;0.17;;;7.00;99.90;;;;;;4803402;29;20449;-70
2023/01/16 13:02:55;;;;;;;0.50;0.10;;;7.10;99.90;;;;;;4813796;29;20970;-69
2023/01/16 13:05:27;;;;;;;0.50;0.10;;;7.10;99.90;;;;;;4822185;29;20457;-70
2023/01/16 13:08:00;;;;;;;0.50;0.10;;;7.20;99.90;;;;;;4830339;29;20658;-70
2023/01/16 13:13:24;;;;;;;0.50;0.10;;;7.40;99.90;;;;;;4825976;29;20521;-69
2023/01/16 13:16:06;;;;;;;0.50;0.10;;;7.40;99.90;;;;;;4825369;29;20945;-70
2023/01/16 13:18:40;;;;;;;0.50;0.10;;;7.60;99.90;;;;;;4825951;29;20445;-70
2023/01/16 13:21:14;;;;;;;0.60;0.30;;;7.60;99.90;;;;;;4825791;29;20475;-69
2023/01/16 13:23:48;;;;;;;0.50;0.10;;;7.60;99.90;;;;;;4828608;29;20493;-70
2023/01/16 13:26:19;;;;;;;0.50;0.10;;;7.60;99.90;;;;;;4827361;29;20457;-70
2023/01/16 13:29:02;;;;;;;0.50;0.10;;;7.50;99.90;;;;;;4826529;29;20453;-70
2023/01/16 13:31:34;;;;;;;0.50;0.10;;;7.50;99.90;;;;;;4816658;29;20478;-71
2023/01/16 13:34:09;;;;;;;0.50;0.10;;;7.40;99.90;;;;;;4807955;29;20945;-71
2023/01/16 13:37:16;;;;;;;0.50;0.10;;;7.30;99.90;;;;;;4809504;29;20882;-70
2023/01/16 13:40:17;;;;;;;0.50;0.20;;;7.30;99.90;;;;;;4810828;29;20454;-70
2023/01/16 13:42:54;;;;;;;0.50;0.20;;;7.30;99.90;;;;;;4819807;29;20504;-70
2023/01/16 13:45:48;;;;;;;0.50;0.10;;;7.30;99.90;;;;;;4818387;29;20458;-70
2023/01/16 13:48:19;;;;;;;0.50;0.10;;;7.30;99.90;;;;;;4816718;29;20462;-71
2023/01/16 13:50:53;;;;;;;0.50;0.10;;;6.70;99.90;;;;;;4814824;29;20457;-70
2023/01/16 13:53:22;;;;;;;0.50;0.10;;;7.30;99.90;;;;;;4818913;29;20454;-70
2023/01/16 13:56:01;;;;;;;0.50;0.10;;;7.30;99.90;;;;;;4817299;29;20517;-70
2023/01/16 13:58:30;;;;;;;0.50;0.10;;;7.40;99.90;;;;;;4816963;29;20454;-70
2023/01/16 14:01:00;;;;;;;0.50;0.10;;;7.40;99.90;;;;;;4810590;29;20501;-69
2023/01/16 14:03:29;;;;;;;0.50;0.10;;;7.40;99.90;;;;;;4825327;29;20509;-69
2023/01/16 14:06:17;;;;;;;0.50;0.10;;;7.30;99.90;;;;;;4828129;29;20453;-70
2023/01/16 14:09:04;;;;;;;0.50;0.10;;;7.30;99.90;;;;;;4819565;29;20502;-71
2023/01/16 14:11:39;;;;;;;0.50;0.10;;;7.40;99.90;;;;;;4807851;29;21010;-71
2023/01/16 14:17:14;;;;;;;0.50;0.10;;;7.40;99.90;;;;;;4823594;29;20481;-69
2023/01/16 14:19:54;;;;;;;0.50;0.10;;;7.40;99.90;;;;;;4827710;29;20460;-70
2023/01/16 14:25:20;;;;;;;0.50;0.10;;;7.30;99.90;;;;;;4824362;29;20468;-71
2023/01/16 14:27:54;;;;;;;0.50;0.20;;;7.40;99.90;;;;;;4823169;29;20453;-71
2023/01/16 14:30:25;;;;;;;0.53;0.17;;;7.40;99.90;;;;;;4823282;29;20473;-71
2023/01/16 14:32:56;;;;;;;0.50;0.10;;;7.40;99.90;;;;;;4842140;29;20498;-69
2023/01/16 14:35:27;;;;;;;0.50;0.10;;;7.40;99.90;;;;;;4829437;29;20449;-70
2023/01/16 14:37:57;;;;;;;0.50;0.10;;;;;;;;;;4826251;29;20832;-70
2023/01/16 14:55:48;;;;;;;0.50;0.10;;;7.30;99.90;;;;;;4825785;29;20461;-69
2023/01/16 14:58:23;;;;;;;0.50;0.10;;;7.30;99.90;;;;;;4825702;29;20453;-70
2023/01/16 15:00:56;;;;;;;0.50;0.10;;;7.40;99.90;;;;;;4825501;29;20468;-69
2023/01/16 15:03:30;;;;;;;0.50;0.10;;;7.30;99.90;;;;;;4825218;29;20493;-70
2023/01/16 15:06:03;;;;;;;0.50;0.10;;;7.40;99.90;;;;;;4825907;29;20454;-71
2023/01/16 15:08:37;;;;;;;0.50;0.10;;;7.40;99.90;;;;;;4825768;29;20456;-72
2023/01/16 15:14:26;;;;;;;0.50;0.10;;;7.40;99.90;;;;;;4824857;29;20580;-72
2023/01/16 15:23:08;;;;;;;12.90;0.80;;;7.40;99.90;;;;;;4750781;30;20964;-71
2023/01/16 15:26:12;;;;;;;0.50;0.10;;;7.40;99.90;;;;;;4810523;29;20935;-71
2023/01/16 15:28:51;;;;;;;0.50;0.10;;;7.40;99.90;;;;;;4795933;29;20460;-69
2023/01/16 15:31:23;;;;;;;0.80;0.80;;;7.40;99.90;;;;;;4824816;29;20465;-70
2023/01/16 15:34:07;;;;;;;0.50;0.10;;;7.40;99.90;;;;;;4825427;29;20993;-70
2023/01/16 15:36:41;;;;;;;0.50;0.10;;;7.40;99.90;;;;;;4825582;29;20940;-70
2023/01/16 15:39:22;;;;;;;0.50;0.10;;;7.40;99.90;;;;;;4825361;29;20981;-69
2023/01/16 15:47:47;;;;;;;0.50;0.10;;;7.30;99.90;;;;;;4824766;29;20492;-69
2023/01/16 15:50:27;;;;;;;0.50;0.20;;;7.30;99.90;;;;;;4824423;29;20453;-69
2023/01/16 15:52:57;;;;;;;0.50;0.10;;;;;;;;;;4824818;29;20837;-71
2023/01/16 15:55:29;;;;;;;0.50;0.10;;;7.30;99.90;;;;;;4824962;29;20868;-70
2023/01/16 15:57:59;;;;;;;0.50;0.10;;;7.20;99.90;;;;;;4824887;29;20457;-71
2023/01/16 16:00:31;;;;;;;1.03;0.70;;;7.20;99.90;;;;;;4824669;29;20810;-69
2023/01/16 16:03:01;;;;;;;0.50;0.10;;;7.10;99.90;;;;;;4824903;29;20489;-70
2023/01/16 16:05:31;;;;;;;0.50;0.10;;;7.10;99.90;;;;;;4828030;29;20463;-70
2023/01/16 16:08:01;;;;;;;0.50;0.10;;;7.00;99.90;;;;;;4829618;29;20450;-70
2023/01/16 16:13:18;;;;;;;0.50;0.30;;;6.80;99.90;;;;;;4842847;29;20476;-70
2023/01/16 16:18:57;;;;;;;0.50;0.13;;;6.80;99.90;;;;;;4842818;29;20456;-70
2023/01/16 16:21:28;;;;;;;0.50;0.10;;;6.70;99.90;;;;;;4842500;29;20456;-70
2023/01/16 16:24:01;;;;;;;0.50;0.10;;;6.70;99.90;;;;;;4842448;29;20496;-69
2023/01/16 16:26:34;;;;;;;0.50;0.10;;;6.60;99.90;;;;;;4842944;29;20448;-69
2023/01/16 16:29:03;;;;;;;0.50;0.10;;;6.50;99.90;;;;;;4842489;29;20816;-71
2023/01/16 16:31:33;;;;;;;0.50;0.10;;;6.50;99.90;;;;;;4842026;29;20525;-70
2023/01/16 16:34:06;;;;;;;0.50;0.10;;;6.50;99.90;;;;;;4824446;29;20452;-71
2023/01/16 16:36:38;;;;;;;0.50;0.10;;;6.50;99.90;;;;;;4824355;29;20453;-71
2023/01/16 16:39:29;;;;;;;0.50;0.10;;;6.50;99.90;;;;;;4823959;29;20464;-71
2023/01/16 16:44:47;;;;;;;0.50;0.20;;;6.60;99.90;;;;;;4824134;29;20855;-71
2023/01/16 16:47:26;;;;;;;0.50;0.10;;;6.60;99.90;;;;;;4823980;29;20506;-71
2023/01/16 16:49:55;;;;;;;0.50;0.10;;;6.60;99.90;;;;;;4823777;29;20555;-71
2023/01/16 16:52:32;;;;;;;0.50;0.20;;;6.60;99.90;;;;;;4823493;29;20483;-70
2023/01/16 16:55:02;;;;;;;0.50;0.10;;;6.60;99.90;;;;;;4823419;29;20456;-69
2023/01/16 16:57:43;;;;;;;0.50;0.10;;;6.60;99.90;;;;;;4823619;29;20453;-69
2023/01/16 17:00:17;;;;;;;0.50;0.10;;;6.60;99.90;;;;;;4823606;29;20456;-69
2023/01/16 17:02:48;;;;;;;0.50;0.10;;;6.70;99.90;;;;;;4823791;29;20559;-69
2023/01/16 17:05:19;;;;;;;0.50;0.10;;;6.60;99.90;;;;;;4823174;29;20501;-68
2023/01/16 17:07:47;;;;;;;0.50;0.10;;;6.70;99.90;;;;;;4823368;29;20454;-70
2023/01/16 17:10:18;;;;;;;0.50;0.10;;;6.70;99.90;;;;;;4805092;29;20466;-71
2023/01/16 17:12:46;;;;;;;0.50;0.20;;;6.60;99.90;;;;;;4805684;29;20474;-69
2023/01/16 17:15:15;;;;;;;0.50;0.10;;;;;;;;;;4807665;29;20452;-70
2023/01/16 17:17:45;;;;;;;0.50;0.10;;;6.60;99.90;;;;;;4822310;29;20549;-70
2023/01/16 17:20:16;;;;;;;0.70;0.37;;;6.60;99.90;;;;;;4822951;29;20945;-70
2023/01/16 17:22:52;;;;;;;0.50;0.10;;;6.50;99.90;;;;;;4823390;29;20572;-70
2023/01/16 17:25:25;;;;;;;1.23;0.30;;;6.50;99.90;;;;;;4822878;29;20581;-71
2023/01/16 17:27:55;;;;;;;0.50;0.10;;;6.50;99.90;;;;;;4822941;29;20869;-69
2023/01/16 17:30:24;;;;;;;0.50;0.20;;;6.50;99.90;;;;;;4822984;29;20825;-70
2023/01/16 17:32:57;;;;;;;0.50;0.10;;;6.50;99.90;;;;;;4823020;29;20469;-69
2023/01/16 17:35:28;;;;;;;0.50;0.20;;;6.50;99.90;;;;;;4823324;29;20453;-70
2023/01/16 17:37:56;;;;;;;0.50;0.20;;;;;;;;;;4822922;29;20457;-70
2023/01/16 17:40:26;;;;;;;1.57;1.47;;;;;;;;;;4822997;29;20482;-71
2023/01/16 17:45:53;;;;;;;0.50;0.10;;;6.30;99.90;;;;;;4822836;29;21178;-69
2023/01/16 17:48:21;;;;;;;0.50;0.10;;;6.30;99.90;;;;;;4823060;29;20505;-69
2023/01/16 17:50:50;;;;;;;0.50;0.10;;;;;;;;;;4823087;29;20493;-69
2023/01/16 17:53:20;;;;;;;1.33;0.57;;;6.20;99.90;;;;;;4823194;29;21024;-71
2023/01/16 17:55:51;;;;;;;0.50;0.10;;;6.20;99.90;;;;;;4823249;29;20957;-70
2023/01/16 17:58:23;;;;;;;0.50;0.20;;;6.20;99.90;;;;;;4823707;29;20861;-71
2023/01/16 18:00:58;;;;;;;0.50;0.30;;;6.20;99.90;;;;;;4823348;29;20481;-69
2023/01/16 18:03:26;;;;;;;0.50;0.10;;;6.20;99.90;;;;;;4823976;29;20489;-69
2023/01/16 18:05:54;;;;;;;0.50;0.10;;;6.20;99.90;;;;;;4823583;29;20489;-70
2023/01/16 18:08:22;;;;;;;1.27;0.77;;;6.10;99.90;;;;;;4832450;29;20456;-70
2023/01/16 18:10:51;;;;;;;1.47;0.97;;;6.10;99.90;;;;;;4849418;29;20460;-69
2023/01/16 18:18:56;;;;;;;0.50;0.10;;;6.20;99.90;;;;;;4847467;29;20524;-71
2023/01/16 18:24:10;;;;;;;0.50;0.10;;;6.10;99.90;;;;;;4845592;29;20488;-70
2023/01/16 18:26:40;;;;;;;0.80;0.30;;;6.20;99.90;;;;;;4845096;29;20444;-70
2023/01/16 18:29:07;;;;;;;0.50;0.10;;;6.10;99.90;;;;;;4844736;29;20460;-71
2023/01/16 18:31:35;;;;;;;0.50;0.10;;;6.20;99.90;;;;;;4844200;29;20528;-71
2023/01/16 18:34:03;;;;;;;0.50;0.20;;;6.10;99.90;;;;;;4837019;29;20525;-70
2023/01/16 18:36:31;;;;;;;0.50;0.10;;;6.20;99.90;;;;;;4824673;29;20480;-70
2023/01/16 19:03:59;;;;;;;0.50;0.10;;;5.90;99.90;;;;;;4827405;29;20472;-70
2023/01/16 19:06:28;;;;;;;2.20;2.00;;;5.90;99.90;;;;;;4836121;29;21012;-71
2023/01/16 19:08:56;;;;;;;0.50;0.20;;;5.90;99.90;;;;;;4843242;29;20933;-72
2023/01/16 19:11:26;;;;;;;0.83;0.40;;;5.90;99.90;;;;;;4833603;29;20479;-71
2023/01/16 19:13:56;;;;;;;0.90;0.60;;;6.00;99.90;;;;;;4829446;29;20976;-71
2023/01/16 19:19:09;;;;;;;0.50;0.10;;;6.00;99.90;;;;;;4842012;29;20445;-72
2023/01/16 19:21:40;;;;;;;0.50;0.20;;;6.00;99.90;;;;;;4825497;29;20512;-72
2023/01/16 19:24:09;;;;;;;0.50;0.23;;;;;;;;;;4838294;29;20464;-70
2023/01/16 19:26:41;;;;;;;0.50;0.10;;;6.00;99.90;;;;;;4838801;29;20454;-71
2023/01/16 19:29:12;;;;;;;0.60;0.30;;;6.00;99.90;;;;;;4831057;29;20458;-69
2023/01/16 19:31:40;;;;;;;0.50;0.10;;;5.90;99.90;;;;;;4838254;29;20456;-71
2023/01/16 19:34:09;;;;;;;0.50;0.10;;;5.90;99.90;;;;;;4832698;29;20826;-71
2023/01/16 19:36:39;;;;;;;0.50;0.10;;;5.80;99.90;;;;;;4825109;29;20457;-72
2023/01/16 19:39:08;;;;;;;0.50;0.10;;;5.90;99.90;;;;;;4832665;29;20469;-72
2023/01/16 19:47:10;;;;;;;0.50;0.30;;;5.80;99.90;;;;;;4829231;29;20473;-71
2023/01/16 19:49:40;;;;;;;0.50;0.10;;;5.80;99.90;;;;;;4826522;29;20473;-70
2023/01/16 19:52:08;;;;;;;0.50;0.10;;;5.60;99.90;;;;;;4830907;29;20484;-70